<?xml version="1.0" encoding="UTF-8" standalone="no" ?>
<gpx xmlns="http://www.topografix.com/GPX/1/1" xmlns:xsi="http://www.w3.org/2001/XMLSchema-instance" xsi:schemaLocation="http://www.topografix.com/GPX/1/1 http://www.topografix.com/GPX/1/1/gpx.xsd" version="1.1" creator="VisuGPX - https://www.visugpx.com">
  <metadata>
    <name>Calanque d'En-Vau</name>
    <desc><![CDATA[Calanque d'En-Vau au départ de Cassis]]></desc>
  </metadata>
  <trk>
    <name><![CDATA[Tracé actuel: 13 NOV 2016 09:49]]></name>
    <trkseg>
      <trkpt lat="43.21051" lon="5.52344">
        <ele>61.66</ele>
        <time>2016-11-13T08:50:55Z</time>
      </trkpt>
      <trkpt lat="43.21042" lon="5.52311">
        <ele>65.03</ele>
        <time>2016-11-13T08:53:28Z</time>
      </trkpt>
      <trkpt lat="43.21063" lon="5.52289">
        <ele>66.95</ele>
        <time>2016-11-13T08:53:58Z</time>
      </trkpt>
      <trkpt lat="43.21093" lon="5.5231">
        <ele>61.66</ele>
        <time>2016-11-13T08:54:33Z</time>
      </trkpt>
      <trkpt lat="43.21108" lon="5.52275">
        <ele>53.97</ele>
        <time>2016-11-13T08:55:16Z</time>
      </trkpt>
      <trkpt lat="43.21126" lon="5.52256">
        <ele>48.68</ele>
        <time>2016-11-13T08:56:04Z</time>
      </trkpt>
      <trkpt lat="43.21141" lon="5.52213">
        <ele>42.44</ele>
        <time>2016-11-13T08:56:51Z</time>
      </trkpt>
      <trkpt lat="43.2117" lon="5.52205">
        <ele>35.23</ele>
        <time>2016-11-13T08:57:21Z</time>
      </trkpt>
      <trkpt lat="43.21199" lon="5.52205">
        <ele>35.23</ele>
        <time>2016-11-13T08:57:52Z</time>
      </trkpt>
      <trkpt lat="43.21182" lon="5.52182">
        <ele>42.92</ele>
        <time>2016-11-13T08:58:30Z</time>
      </trkpt>
      <trkpt lat="43.21163" lon="5.52141">
        <ele>47.24</ele>
        <time>2016-11-13T08:59:01Z</time>
      </trkpt>
      <trkpt lat="43.21142" lon="5.52112">
        <ele>48.2</ele>
        <time>2016-11-13T08:59:26Z</time>
      </trkpt>
      <trkpt lat="43.21113" lon="5.52085">
        <ele>48.2</ele>
        <time>2016-11-13T08:59:55Z</time>
      </trkpt>
      <trkpt lat="43.2109" lon="5.5206">
        <ele>50.13</ele>
        <time>2016-11-13T09:00:22Z</time>
      </trkpt>
      <trkpt lat="43.21064" lon="5.52037">
        <ele>51.57</ele>
        <time>2016-11-13T09:00:50Z</time>
      </trkpt>
      <trkpt lat="43.2104" lon="5.52005">
        <ele>57.34</ele>
        <time>2016-11-13T09:01:15Z</time>
      </trkpt>
      <trkpt lat="43.21013" lon="5.5198">
        <ele>54.93</ele>
        <time>2016-11-13T09:01:41Z</time>
      </trkpt>
      <trkpt lat="43.20995" lon="5.51958">
        <ele>57.34</ele>
        <time>2016-11-13T09:02:03Z</time>
      </trkpt>
      <trkpt lat="43.20969" lon="5.51927">
        <ele>59.26</ele>
        <time>2016-11-13T09:02:29Z</time>
      </trkpt>
      <trkpt lat="43.20946" lon="5.51903">
        <ele>59.74</ele>
        <time>2016-11-13T09:02:48Z</time>
      </trkpt>
      <trkpt lat="43.20919" lon="5.51882">
        <ele>60.22</ele>
        <time>2016-11-13T09:03:13Z</time>
      </trkpt>
      <trkpt lat="43.20896" lon="5.51847">
        <ele>51.57</ele>
        <time>2016-11-13T09:03:40Z</time>
      </trkpt>
      <trkpt lat="43.2088" lon="5.51809">
        <ele>40.99</ele>
        <time>2016-11-13T09:04:06Z</time>
      </trkpt>
      <trkpt lat="43.20886" lon="5.51769">
        <ele>30.42</ele>
        <time>2016-11-13T09:04:23Z</time>
      </trkpt>
      <trkpt lat="43.20871" lon="5.51733">
        <ele>28.02</ele>
        <time>2016-11-13T09:04:50Z</time>
      </trkpt>
      <trkpt lat="43.20858" lon="5.51703">
        <ele>21.29</ele>
        <time>2016-11-13T09:05:12Z</time>
      </trkpt>
      <trkpt lat="43.20831" lon="5.51676">
        <ele>27.05</ele>
        <time>2016-11-13T09:05:39Z</time>
      </trkpt>
      <trkpt lat="43.20804" lon="5.51645">
        <ele>28.98</ele>
        <time>2016-11-13T09:06:10Z</time>
      </trkpt>
      <trkpt lat="43.20776" lon="5.51616">
        <ele>32.34</ele>
        <time>2016-11-13T09:06:39Z</time>
      </trkpt>
      <trkpt lat="43.2075" lon="5.51581">
        <ele>35.23</ele>
        <time>2016-11-13T09:07:09Z</time>
      </trkpt>
      <trkpt lat="43.20732" lon="5.5156">
        <ele>38.59</ele>
        <time>2016-11-13T09:07:39Z</time>
      </trkpt>
      <trkpt lat="43.20726" lon="5.51519">
        <ele>40.51</ele>
        <time>2016-11-13T09:08:07Z</time>
      </trkpt>
      <trkpt lat="43.20716" lon="5.51495">
        <ele>43.4</ele>
        <time>2016-11-13T09:08:34Z</time>
      </trkpt>
      <trkpt lat="43.20693" lon="5.51479">
        <ele>44.36</ele>
        <time>2016-11-13T09:09:03Z</time>
      </trkpt>
      <trkpt lat="43.2067" lon="5.51473">
        <ele>47.24</ele>
        <time>2016-11-13T09:09:30Z</time>
      </trkpt>
      <trkpt lat="43.20646" lon="5.51463">
        <ele>47.24</ele>
        <time>2016-11-13T09:10:08Z</time>
      </trkpt>
      <trkpt lat="43.20625" lon="5.51441">
        <ele>53.01</ele>
        <time>2016-11-13T09:10:49Z</time>
      </trkpt>
      <trkpt lat="43.20608" lon="5.51421">
        <ele>54.93</ele>
        <time>2016-11-13T09:11:18Z</time>
      </trkpt>
      <trkpt lat="43.20589" lon="5.51398">
        <ele>58.78</ele>
        <time>2016-11-13T09:11:46Z</time>
      </trkpt>
      <trkpt lat="43.20584" lon="5.51368">
        <ele>56.86</ele>
        <time>2016-11-13T09:12:43Z</time>
      </trkpt>
      <trkpt lat="43.20592" lon="5.51318">
        <ele>58.78</ele>
        <time>2016-11-13T09:13:22Z</time>
      </trkpt>
      <trkpt lat="43.20597" lon="5.51288">
        <ele>59.26</ele>
        <time>2016-11-13T09:14:00Z</time>
      </trkpt>
      <trkpt lat="43.20592" lon="5.51262">
        <ele>58.3</ele>
        <time>2016-11-13T09:15:46Z</time>
      </trkpt>
      <trkpt lat="43.20587" lon="5.51228">
        <ele>56.37</ele>
        <time>2016-11-13T09:16:33Z</time>
      </trkpt>
      <trkpt lat="43.20564" lon="5.51199">
        <ele>59.74</ele>
        <time>2016-11-13T09:17:06Z</time>
      </trkpt>
      <trkpt lat="43.20543" lon="5.51182">
        <ele>57.82</ele>
        <time>2016-11-13T09:17:37Z</time>
      </trkpt>
      <trkpt lat="43.20525" lon="5.51164">
        <ele>51.57</ele>
        <time>2016-11-13T09:18:38Z</time>
      </trkpt>
      <trkpt lat="43.20498" lon="5.51164">
        <ele>46.76</ele>
        <time>2016-11-13T09:19:17Z</time>
      </trkpt>
      <trkpt lat="43.2047" lon="5.51162">
        <ele>48.2</ele>
        <time>2016-11-13T09:19:56Z</time>
      </trkpt>
      <trkpt lat="43.20444" lon="5.51165">
        <ele>45.8</ele>
        <time>2016-11-13T09:20:32Z</time>
      </trkpt>
      <trkpt lat="43.20437" lon="5.5114">
        <ele>40.99</ele>
        <time>2016-11-13T09:21:24Z</time>
      </trkpt>
      <trkpt lat="43.20431" lon="5.51114">
        <ele>27.53</ele>
        <time>2016-11-13T09:22:16Z</time>
      </trkpt>
      <trkpt lat="43.20415" lon="5.51092">
        <ele>20.32</ele>
        <time>2016-11-13T09:22:53Z</time>
      </trkpt>
      <trkpt lat="43.204" lon="5.51076">
        <ele>20.81</ele>
        <time>2016-11-13T09:23:53Z</time>
      </trkpt>
      <trkpt lat="43.20411" lon="5.51045">
        <ele>27.05</ele>
        <time>2016-11-13T09:24:24Z</time>
      </trkpt>
      <trkpt lat="43.20417" lon="5.51009">
        <ele>41.95</ele>
        <time>2016-11-13T09:24:56Z</time>
      </trkpt>
      <trkpt lat="43.20416" lon="5.50968">
        <ele>70.31</ele>
        <time>2016-11-13T09:25:40Z</time>
      </trkpt>
      <trkpt lat="43.20412" lon="5.50932">
        <ele>85.21</ele>
        <time>2016-11-13T09:26:17Z</time>
      </trkpt>
      <trkpt lat="43.20426" lon="5.50896">
        <ele>86.18</ele>
        <time>2016-11-13T09:26:42Z</time>
      </trkpt>
      <trkpt lat="43.20433" lon="5.50862">
        <ele>73.2</ele>
        <time>2016-11-13T09:27:07Z</time>
      </trkpt>
      <trkpt lat="43.2044" lon="5.50829">
        <ele>77.52</ele>
        <time>2016-11-13T09:27:41Z</time>
      </trkpt>
      <trkpt lat="43.20442" lon="5.5079">
        <ele>105.88</ele>
        <time>2016-11-13T09:28:23Z</time>
      </trkpt>
      <trkpt lat="43.20448" lon="5.50735">
        <ele>101.56</ele>
        <time>2016-11-13T09:29:01Z</time>
      </trkpt>
      <trkpt lat="43.20456" lon="5.50694">
        <ele>88.1</ele>
        <time>2016-11-13T09:29:30Z</time>
      </trkpt>
      <trkpt lat="43.20463" lon="5.50665">
        <ele>85.69</ele>
        <time>2016-11-13T09:29:54Z</time>
      </trkpt>
      <trkpt lat="43.20471" lon="5.50625">
        <ele>80.89</ele>
        <time>2016-11-13T09:30:21Z</time>
      </trkpt>
      <trkpt lat="43.20483" lon="5.50599">
        <ele>83.77</ele>
        <time>2016-11-13T09:30:45Z</time>
      </trkpt>
      <trkpt lat="43.20502" lon="5.50558">
        <ele>93.87</ele>
        <time>2016-11-13T09:31:24Z</time>
      </trkpt>
      <trkpt lat="43.20513" lon="5.5053">
        <ele>97.71</ele>
        <time>2016-11-13T09:31:51Z</time>
      </trkpt>
      <trkpt lat="43.20528" lon="5.50495">
        <ele>103.96</ele>
        <time>2016-11-13T09:32:29Z</time>
      </trkpt>
      <trkpt lat="43.20545" lon="5.50468">
        <ele>108.77</ele>
        <time>2016-11-13T09:32:59Z</time>
      </trkpt>
      <trkpt lat="43.20561" lon="5.50441">
        <ele>106.36</ele>
        <time>2016-11-13T09:33:25Z</time>
      </trkpt>
      <trkpt lat="43.20572" lon="5.50417">
        <ele>108.77</ele>
        <time>2016-11-13T09:33:59Z</time>
      </trkpt>
      <trkpt lat="43.2058" lon="5.50386">
        <ele>113.09</ele>
        <time>2016-11-13T09:34:47Z</time>
      </trkpt>
      <trkpt lat="43.20584" lon="5.5035">
        <ele>122.71</ele>
        <time>2016-11-13T09:35:25Z</time>
      </trkpt>
      <trkpt lat="43.20592" lon="5.5031">
        <ele>133.28</ele>
        <time>2016-11-13T09:36:13Z</time>
      </trkpt>
      <trkpt lat="43.20593" lon="5.50305">
        <ele>134.24</ele>
        <time>2016-11-13T09:39:11Z</time>
      </trkpt>
      <trkpt lat="43.20602" lon="5.50266">
        <ele>139.05</ele>
        <time>2016-11-13T09:39:59Z</time>
      </trkpt>
      <trkpt lat="43.2062" lon="5.50247">
        <ele>142.41</ele>
        <time>2016-11-13T09:40:28Z</time>
      </trkpt>
      <trkpt lat="43.20623" lon="5.50206">
        <ele>147.22</ele>
        <time>2016-11-13T09:41:07Z</time>
      </trkpt>
      <trkpt lat="43.20622" lon="5.50208">
        <ele>145.78</ele>
        <time>2016-11-13T09:42:07Z</time>
      </trkpt>
      <trkpt lat="43.20598" lon="5.50217">
        <ele>144.82</ele>
        <time>2016-11-13T09:42:34Z</time>
      </trkpt>
      <trkpt lat="43.20565" lon="5.50225">
        <ele>145.3</ele>
        <time>2016-11-13T09:43:23Z</time>
      </trkpt>
      <trkpt lat="43.20538" lon="5.50248">
        <ele>146.74</ele>
        <time>2016-11-13T09:43:50Z</time>
      </trkpt>
      <trkpt lat="43.20504" lon="5.50265">
        <ele>149.62</ele>
        <time>2016-11-13T09:44:21Z</time>
      </trkpt>
      <trkpt lat="43.20478" lon="5.50261">
        <ele>152.99</ele>
        <time>2016-11-13T09:44:47Z</time>
      </trkpt>
      <trkpt lat="43.20451" lon="5.50251">
        <ele>147.7</ele>
        <time>2016-11-13T09:45:16Z</time>
      </trkpt>
      <trkpt lat="43.20415" lon="5.50243">
        <ele>145.78</ele>
        <time>2016-11-13T09:45:49Z</time>
      </trkpt>
      <trkpt lat="43.20379" lon="5.50235">
        <ele>142.89</ele>
        <time>2016-11-13T09:46:22Z</time>
      </trkpt>
      <trkpt lat="43.20351" lon="5.50212">
        <ele>138.57</ele>
        <time>2016-11-13T09:46:57Z</time>
      </trkpt>
      <trkpt lat="43.20339" lon="5.50186">
        <ele>145.3</ele>
        <time>2016-11-13T09:47:18Z</time>
      </trkpt>
      <trkpt lat="43.20339" lon="5.50152">
        <ele>146.26</ele>
        <time>2016-11-13T09:47:47Z</time>
      </trkpt>
      <trkpt lat="43.20327" lon="5.50136">
        <ele>142.89</ele>
        <time>2016-11-13T09:48:19Z</time>
      </trkpt>
      <trkpt lat="43.20305" lon="5.50141">
        <ele>137.13</ele>
        <time>2016-11-13T09:48:44Z</time>
      </trkpt>
      <trkpt lat="43.20273" lon="5.50157">
        <ele>133.76</ele>
        <time>2016-11-13T09:49:16Z</time>
      </trkpt>
      <trkpt lat="43.20242" lon="5.50157">
        <ele>133.76</ele>
        <time>2016-11-13T09:49:52Z</time>
      </trkpt>
      <trkpt lat="43.20214" lon="5.5016">
        <ele>127.99</ele>
        <time>2016-11-13T09:50:18Z</time>
      </trkpt>
      <trkpt lat="43.20199" lon="5.50168">
        <ele>119.82</ele>
        <time>2016-11-13T09:51:36Z</time>
      </trkpt>
      <trkpt lat="43.20199" lon="5.5016">
        <ele>116.46</ele>
        <time>2016-11-13T09:54:52Z</time>
      </trkpt>
      <trkpt lat="43.20192" lon="5.50192">
        <ele>115.01</ele>
        <time>2016-11-13T09:55:51Z</time>
      </trkpt>
      <trkpt lat="43.20191" lon="5.50162">
        <ele>120.3</ele>
        <time>2016-11-13T09:57:12Z</time>
      </trkpt>
      <trkpt lat="43.202" lon="5.50161">
        <ele>123.67</ele>
        <time>2016-11-13T09:59:21Z</time>
      </trkpt>
      <trkpt lat="43.20203" lon="5.50189">
        <ele>123.19</ele>
        <time>2016-11-13T10:00:11Z</time>
      </trkpt>
      <trkpt lat="43.20196" lon="5.50214">
        <ele>118.38</ele>
        <time>2016-11-13T10:00:45Z</time>
      </trkpt>
      <trkpt lat="43.2018" lon="5.50239">
        <ele>112.13</ele>
        <time>2016-11-13T10:01:23Z</time>
      </trkpt>
      <trkpt lat="43.20163" lon="5.5024">
        <ele>105.4</ele>
        <time>2016-11-13T10:03:04Z</time>
      </trkpt>
      <trkpt lat="43.2016" lon="5.50238">
        <ele>109.25</ele>
        <time>2016-11-13T10:05:20Z</time>
      </trkpt>
      <trkpt lat="43.20168" lon="5.50247">
        <ele>105.88</ele>
        <time>2016-11-13T10:06:56Z</time>
      </trkpt>
      <trkpt lat="43.20187" lon="5.50226">
        <ele>110.21</ele>
        <time>2016-11-13T10:07:46Z</time>
      </trkpt>
      <trkpt lat="43.20202" lon="5.50199">
        <ele>114.53</ele>
        <time>2016-11-13T10:08:36Z</time>
      </trkpt>
      <trkpt lat="43.20217" lon="5.50168">
        <ele>123.67</ele>
        <time>2016-11-13T10:09:25Z</time>
      </trkpt>
      <trkpt lat="43.20203" lon="5.50153">
        <ele>120.78</ele>
        <time>2016-11-13T10:10:12Z</time>
      </trkpt>
      <trkpt lat="43.20214" lon="5.50161">
        <ele>121.74</ele>
        <time>2016-11-13T10:12:24Z</time>
      </trkpt>
      <trkpt lat="43.20239" lon="5.50153">
        <ele>125.59</ele>
        <time>2016-11-13T10:13:00Z</time>
      </trkpt>
      <trkpt lat="43.20261" lon="5.5015">
        <ele>128.47</ele>
        <time>2016-11-13T10:13:31Z</time>
      </trkpt>
      <trkpt lat="43.20284" lon="5.50145">
        <ele>134.24</ele>
        <time>2016-11-13T10:13:56Z</time>
      </trkpt>
      <trkpt lat="43.20306" lon="5.50137">
        <ele>136.64</ele>
        <time>2016-11-13T10:14:23Z</time>
      </trkpt>
      <trkpt lat="43.20331" lon="5.50126">
        <ele>140.01</ele>
        <time>2016-11-13T10:14:53Z</time>
      </trkpt>
      <trkpt lat="43.20344" lon="5.50095">
        <ele>138.57</ele>
        <time>2016-11-13T10:15:24Z</time>
      </trkpt>
      <trkpt lat="43.20337" lon="5.50067">
        <ele>136.64</ele>
        <time>2016-11-13T10:15:49Z</time>
      </trkpt>
      <trkpt lat="43.20326" lon="5.50039">
        <ele>134.72</ele>
        <time>2016-11-13T10:16:21Z</time>
      </trkpt>
      <trkpt lat="43.20319" lon="5.50018">
        <ele>136.64</ele>
        <time>2016-11-13T10:17:04Z</time>
      </trkpt>
      <trkpt lat="43.203" lon="5.50004">
        <ele>133.28</ele>
        <time>2016-11-13T10:17:53Z</time>
      </trkpt>
      <trkpt lat="43.203" lon="5.50021">
        <ele>127.99</ele>
        <time>2016-11-13T10:20:05Z</time>
      </trkpt>
      <trkpt lat="43.20281" lon="5.50005">
        <ele>126.07</ele>
        <time>2016-11-13T10:20:41Z</time>
      </trkpt>
      <trkpt lat="43.20284" lon="5.50008">
        <ele>126.07</ele>
        <time>2016-11-13T10:23:09Z</time>
      </trkpt>
      <trkpt lat="43.20304" lon="5.50018">
        <ele>128.47</ele>
        <time>2016-11-13T10:23:54Z</time>
      </trkpt>
      <trkpt lat="43.20325" lon="5.50019">
        <ele>135.2</ele>
        <time>2016-11-13T10:24:43Z</time>
      </trkpt>
      <trkpt lat="43.20353" lon="5.50026">
        <ele>139.53</ele>
        <time>2016-11-13T10:25:31Z</time>
      </trkpt>
      <trkpt lat="43.20376" lon="5.50032">
        <ele>143.85</ele>
        <time>2016-11-13T10:26:03Z</time>
      </trkpt>
      <trkpt lat="43.20393" lon="5.50016">
        <ele>146.26</ele>
        <time>2016-11-13T10:26:38Z</time>
      </trkpt>
      <trkpt lat="43.20408" lon="5.49974">
        <ele>147.22</ele>
        <time>2016-11-13T10:27:16Z</time>
      </trkpt>
      <trkpt lat="43.20425" lon="5.49946">
        <ele>149.14</ele>
        <time>2016-11-13T10:27:46Z</time>
      </trkpt>
      <trkpt lat="43.20434" lon="5.499">
        <ele>150.1</ele>
        <time>2016-11-13T10:28:20Z</time>
      </trkpt>
      <trkpt lat="43.20432" lon="5.49861">
        <ele>152.03</ele>
        <time>2016-11-13T10:28:50Z</time>
      </trkpt>
      <trkpt lat="43.20417" lon="5.49835">
        <ele>151.54</ele>
        <time>2016-11-13T10:29:35Z</time>
      </trkpt>
      <trkpt lat="43.20402" lon="5.49845">
        <ele>150.1</ele>
        <time>2016-11-13T10:30:42Z</time>
      </trkpt>
      <trkpt lat="43.20379" lon="5.49848">
        <ele>144.82</ele>
        <time>2016-11-13T10:32:05Z</time>
      </trkpt>
      <trkpt lat="43.20379" lon="5.49847">
        <ele>142.89</ele>
        <time>2016-11-13T10:34:36Z</time>
      </trkpt>
      <trkpt lat="43.20401" lon="5.49841">
        <ele>148.66</ele>
        <time>2016-11-13T10:35:15Z</time>
      </trkpt>
      <trkpt lat="43.20431" lon="5.49838">
        <ele>153.95</ele>
        <time>2016-11-13T10:36:00Z</time>
      </trkpt>
      <trkpt lat="43.20447" lon="5.49815">
        <ele>154.43</ele>
        <time>2016-11-13T10:36:47Z</time>
      </trkpt>
      <trkpt lat="43.20466" lon="5.49796">
        <ele>157.79</ele>
        <time>2016-11-13T10:37:29Z</time>
      </trkpt>
      <trkpt lat="43.20464" lon="5.4981">
        <ele>155.87</ele>
        <time>2016-11-13T10:38:52Z</time>
      </trkpt>
      <trkpt lat="43.20465" lon="5.49843">
        <ele>152.03</ele>
        <time>2016-11-13T10:39:38Z</time>
      </trkpt>
      <trkpt lat="43.20458" lon="5.4988">
        <ele>152.99</ele>
        <time>2016-11-13T10:40:06Z</time>
      </trkpt>
      <trkpt lat="43.20468" lon="5.49914">
        <ele>151.06</ele>
        <time>2016-11-13T10:40:35Z</time>
      </trkpt>
      <trkpt lat="43.20471" lon="5.49952">
        <ele>152.03</ele>
        <time>2016-11-13T10:41:02Z</time>
      </trkpt>
      <trkpt lat="43.20474" lon="5.49984">
        <ele>152.51</ele>
        <time>2016-11-13T10:41:24Z</time>
      </trkpt>
      <trkpt lat="43.20476" lon="5.50015">
        <ele>152.99</ele>
        <time>2016-11-13T10:41:46Z</time>
      </trkpt>
      <trkpt lat="43.20487" lon="5.50046">
        <ele>154.43</ele>
        <time>2016-11-13T10:42:09Z</time>
      </trkpt>
      <trkpt lat="43.20493" lon="5.50077">
        <ele>153.95</ele>
        <time>2016-11-13T10:42:29Z</time>
      </trkpt>
      <trkpt lat="43.20494" lon="5.50122">
        <ele>155.39</ele>
        <time>2016-11-13T10:42:58Z</time>
      </trkpt>
      <trkpt lat="43.20516" lon="5.50151">
        <ele>158.75</ele>
        <time>2016-11-13T10:43:28Z</time>
      </trkpt>
      <trkpt lat="43.20537" lon="5.5017">
        <ele>158.27</ele>
        <time>2016-11-13T10:43:54Z</time>
      </trkpt>
      <trkpt lat="43.20559" lon="5.50185">
        <ele>154.91</ele>
        <time>2016-11-13T10:44:22Z</time>
      </trkpt>
      <trkpt lat="43.20591" lon="5.50198">
        <ele>149.14</ele>
        <time>2016-11-13T10:45:06Z</time>
      </trkpt>
      <trkpt lat="43.20616" lon="5.50204">
        <ele>146.74</ele>
        <time>2016-11-13T10:45:31Z</time>
      </trkpt>
      <trkpt lat="43.20638" lon="5.50175">
        <ele>146.26</ele>
        <time>2016-11-13T10:46:07Z</time>
      </trkpt>
      <trkpt lat="43.20651" lon="5.50146">
        <ele>139.05</ele>
        <time>2016-11-13T10:46:44Z</time>
      </trkpt>
      <trkpt lat="43.20668" lon="5.50131">
        <ele>124.63</ele>
        <time>2016-11-13T10:47:43Z</time>
      </trkpt>
      <trkpt lat="43.20667" lon="5.50106">
        <ele>110.21</ele>
        <time>2016-11-13T10:49:07Z</time>
      </trkpt>
      <trkpt lat="43.20685" lon="5.50086">
        <ele>101.08</ele>
        <time>2016-11-13T10:50:13Z</time>
      </trkpt>
      <trkpt lat="43.2069" lon="5.50063">
        <ele>92.9</ele>
        <time>2016-11-13T10:51:56Z</time>
      </trkpt>
      <trkpt lat="43.20664" lon="5.50048">
        <ele>89.06</ele>
        <time>2016-11-13T10:53:11Z</time>
      </trkpt>
      <trkpt lat="43.20654" lon="5.50016">
        <ele>69.83</ele>
        <time>2016-11-13T10:54:08Z</time>
      </trkpt>
      <trkpt lat="43.20635" lon="5.49994">
        <ele>63.1</ele>
        <time>2016-11-13T10:55:09Z</time>
      </trkpt>
      <trkpt lat="43.20628" lon="5.49965">
        <ele>66.47</ele>
        <time>2016-11-13T10:56:05Z</time>
      </trkpt>
      <trkpt lat="43.2062" lon="5.49932">
        <ele>83.77</ele>
        <time>2016-11-13T10:56:54Z</time>
      </trkpt>
      <trkpt lat="43.20611" lon="5.499">
        <ele>78.48</ele>
        <time>2016-11-13T10:57:56Z</time>
      </trkpt>
      <trkpt lat="43.2062" lon="5.49873">
        <ele>83.77</ele>
        <time>2016-11-13T10:58:51Z</time>
      </trkpt>
      <trkpt lat="43.20636" lon="5.49839">
        <ele>80.89</ele>
        <time>2016-11-13T10:59:22Z</time>
      </trkpt>
      <trkpt lat="43.20651" lon="5.49811">
        <ele>87.62</ele>
        <time>2016-11-13T10:59:46Z</time>
      </trkpt>
      <trkpt lat="43.20657" lon="5.49773">
        <ele>102.04</ele>
        <time>2016-11-13T11:00:17Z</time>
      </trkpt>
      <trkpt lat="43.20636" lon="5.49762">
        <ele>115.98</ele>
        <time>2016-11-13T11:00:53Z</time>
      </trkpt>
      <trkpt lat="43.20615" lon="5.49746">
        <ele>114.05</ele>
        <time>2016-11-13T11:01:16Z</time>
      </trkpt>
      <trkpt lat="43.20597" lon="5.49728">
        <ele>107.81</ele>
        <time>2016-11-13T11:01:35Z</time>
      </trkpt>
      <trkpt lat="43.20577" lon="5.49693">
        <ele>88.1</ele>
        <time>2016-11-13T11:02:05Z</time>
      </trkpt>
      <trkpt lat="43.20551" lon="5.49676">
        <ele>73.68</ele>
        <time>2016-11-13T11:02:30Z</time>
      </trkpt>
      <trkpt lat="43.20526" lon="5.49662">
        <ele>65.51</ele>
        <time>2016-11-13T11:02:51Z</time>
      </trkpt>
      <trkpt lat="43.20496" lon="5.49655">
        <ele>59.74</ele>
        <time>2016-11-13T11:03:13Z</time>
      </trkpt>
      <trkpt lat="43.20465" lon="5.49656">
        <ele>58.78</ele>
        <time>2016-11-13T11:03:42Z</time>
      </trkpt>
      <trkpt lat="43.20433" lon="5.49648">
        <ele>55.89</ele>
        <time>2016-11-13T11:04:07Z</time>
      </trkpt>
      <trkpt lat="43.20407" lon="5.49628">
        <ele>53.01</ele>
        <time>2016-11-13T11:04:35Z</time>
      </trkpt>
      <trkpt lat="43.2038" lon="5.4963">
        <ele>67.43</ele>
        <time>2016-11-13T11:05:01Z</time>
      </trkpt>
      <trkpt lat="43.20351" lon="5.4964">
        <ele>71.76</ele>
        <time>2016-11-13T11:05:24Z</time>
      </trkpt>
      <trkpt lat="43.20324" lon="5.49653">
        <ele>77.04</ele>
        <time>2016-11-13T11:05:49Z</time>
      </trkpt>
      <trkpt lat="43.20299" lon="5.49659">
        <ele>83.29</ele>
        <time>2016-11-13T11:06:09Z</time>
      </trkpt>
      <trkpt lat="43.20275" lon="5.49675">
        <ele>78.97</ele>
        <time>2016-11-13T11:06:33Z</time>
      </trkpt>
      <trkpt lat="43.20255" lon="5.49702">
        <ele>64.07</ele>
        <time>2016-11-13T11:07:02Z</time>
      </trkpt>
      <trkpt lat="43.20247" lon="5.49738">
        <ele>60.22</ele>
        <time>2016-11-13T11:07:29Z</time>
      </trkpt>
      <trkpt lat="43.20244" lon="5.49772">
        <ele>58.78</ele>
        <time>2016-11-13T11:07:57Z</time>
      </trkpt>
      <trkpt lat="43.20229" lon="5.49797">
        <ele>61.18</ele>
        <time>2016-11-13T11:08:36Z</time>
      </trkpt>
      <trkpt lat="43.20229" lon="5.4979">
        <ele>48.68</ele>
        <time>2016-11-13T11:09:36Z</time>
      </trkpt>
      <trkpt lat="43.20228" lon="5.49804">
        <ele>22.73</ele>
        <time>2016-11-13T11:11:50Z</time>
      </trkpt>
      <trkpt lat="43.2025" lon="5.49798">
        <ele>20.32</ele>
        <time>2016-11-13T11:12:20Z</time>
      </trkpt>
      <trkpt lat="43.20226" lon="5.49798">
        <ele>-0.82</ele>
        <time>2016-11-13T11:14:24Z</time>
      </trkpt>
      <trkpt lat="43.20227" lon="5.49802">
        <ele>-8.51</ele>
        <time>2016-11-13T11:17:29Z</time>
      </trkpt>
      <trkpt lat="43.20224" lon="5.49801">
        <ele>-5.63</ele>
        <time>2016-11-13T11:21:27Z</time>
      </trkpt>
      <trkpt lat="43.20232" lon="5.49803">
        <ele>3.5</ele>
        <time>2016-11-13T11:25:20Z</time>
      </trkpt>
      <trkpt lat="43.20225" lon="5.49796">
        <ele>3.98</ele>
        <time>2016-11-13T11:28:52Z</time>
      </trkpt>
      <trkpt lat="43.20223" lon="5.49801">
        <ele>5.91</ele>
        <time>2016-11-13T11:31:54Z</time>
      </trkpt>
      <trkpt lat="43.20236" lon="5.49791">
        <ele>3.02</ele>
        <time>2016-11-13T11:34:13Z</time>
      </trkpt>
      <trkpt lat="43.20242" lon="5.49752">
        <ele>4.46</ele>
        <time>2016-11-13T11:34:46Z</time>
      </trkpt>
      <trkpt lat="43.2025" lon="5.49719">
        <ele>5.91</ele>
        <time>2016-11-13T11:35:15Z</time>
      </trkpt>
      <trkpt lat="43.20272" lon="5.4969">
        <ele>8.31</ele>
        <time>2016-11-13T11:35:51Z</time>
      </trkpt>
      <trkpt lat="43.20288" lon="5.49672">
        <ele>36.67</ele>
        <time>2016-11-13T11:36:24Z</time>
      </trkpt>
      <trkpt lat="43.20288" lon="5.49658">
        <ele>99.15</ele>
        <time>2016-11-13T11:37:09Z</time>
      </trkpt>
      <trkpt lat="43.20283" lon="5.49637">
        <ele>117.42</ele>
        <time>2016-11-13T11:38:19Z</time>
      </trkpt>
      <trkpt lat="43.2031" lon="5.4964">
        <ele>78</ele>
        <time>2016-11-13T11:38:59Z</time>
      </trkpt>
      <trkpt lat="43.20328" lon="5.49635">
        <ele>56.37</ele>
        <time>2016-11-13T11:40:10Z</time>
      </trkpt>
      <trkpt lat="43.20344" lon="5.49625">
        <ele>52.05</ele>
        <time>2016-11-13T11:41:38Z</time>
      </trkpt>
      <trkpt lat="43.20363" lon="5.49605">
        <ele>63.1</ele>
        <time>2016-11-13T11:42:17Z</time>
      </trkpt>
      <trkpt lat="43.20378" lon="5.49575">
        <ele>77.04</ele>
        <time>2016-11-13T11:43:11Z</time>
      </trkpt>
      <trkpt lat="43.20368" lon="5.49547">
        <ele>76.08</ele>
        <time>2016-11-13T11:44:12Z</time>
      </trkpt>
      <trkpt lat="43.20354" lon="5.49527">
        <ele>79.93</ele>
        <time>2016-11-13T11:45:27Z</time>
      </trkpt>
      <trkpt lat="43.20332" lon="5.49528">
        <ele>85.69</ele>
        <time>2016-11-13T11:46:33Z</time>
      </trkpt>
      <trkpt lat="43.20327" lon="5.49518">
        <ele>86.66</ele>
        <time>2016-11-13T11:48:44Z</time>
      </trkpt>
      <trkpt lat="43.2034" lon="5.49493">
        <ele>92.9</ele>
        <time>2016-11-13T11:49:57Z</time>
      </trkpt>
      <trkpt lat="43.20341" lon="5.49488">
        <ele>92.9</ele>
        <time>2016-11-13T11:54:15Z</time>
      </trkpt>
      <trkpt lat="43.20328" lon="5.49508">
        <ele>92.42</ele>
        <time>2016-11-13T11:55:48Z</time>
      </trkpt>
      <trkpt lat="43.20328" lon="5.49538">
        <ele>92.42</ele>
        <time>2016-11-13T11:56:28Z</time>
      </trkpt>
      <trkpt lat="43.20329" lon="5.49537">
        <ele>89.54</ele>
        <time>2016-11-13T11:58:17Z</time>
      </trkpt>
      <trkpt lat="43.20346" lon="5.49525">
        <ele>70.31</ele>
        <time>2016-11-13T12:00:08Z</time>
      </trkpt>
      <trkpt lat="43.20362" lon="5.49541">
        <ele>59.74</ele>
        <time>2016-11-13T12:01:18Z</time>
      </trkpt>
      <trkpt lat="43.20364" lon="5.49582">
        <ele>56.37</ele>
        <time>2016-11-13T12:02:46Z</time>
      </trkpt>
      <trkpt lat="43.20347" lon="5.49599">
        <ele>44.84</ele>
        <time>2016-11-13T12:03:28Z</time>
      </trkpt>
      <trkpt lat="43.20326" lon="5.49605">
        <ele>45.32</ele>
        <time>2016-11-13T12:03:59Z</time>
      </trkpt>
      <trkpt lat="43.20305" lon="5.49625">
        <ele>46.76</ele>
        <time>2016-11-13T12:04:51Z</time>
      </trkpt>
      <trkpt lat="43.20296" lon="5.4965">
        <ele>45.8</ele>
        <time>2016-11-13T12:05:35Z</time>
      </trkpt>
      <trkpt lat="43.20315" lon="5.49662">
        <ele>46.76</ele>
        <time>2016-11-13T12:06:14Z</time>
      </trkpt>
      <trkpt lat="43.20344" lon="5.49647">
        <ele>67.43</ele>
        <time>2016-11-13T12:06:49Z</time>
      </trkpt>
      <trkpt lat="43.20378" lon="5.49636">
        <ele>64.07</ele>
        <time>2016-11-13T12:07:21Z</time>
      </trkpt>
      <trkpt lat="43.20406" lon="5.49631">
        <ele>60.22</ele>
        <time>2016-11-13T12:07:48Z</time>
      </trkpt>
      <trkpt lat="43.20425" lon="5.49647">
        <ele>102.04</ele>
        <time>2016-11-13T12:08:18Z</time>
      </trkpt>
      <trkpt lat="43.20449" lon="5.49643">
        <ele>94.83</ele>
        <time>2016-11-13T12:08:39Z</time>
      </trkpt>
      <trkpt lat="43.20484" lon="5.49654">
        <ele>79.93</ele>
        <time>2016-11-13T12:09:11Z</time>
      </trkpt>
      <trkpt lat="43.20514" lon="5.49645">
        <ele>71.76</ele>
        <time>2016-11-13T12:09:39Z</time>
      </trkpt>
      <trkpt lat="43.20547" lon="5.49656">
        <ele>66.95</ele>
        <time>2016-11-13T12:10:11Z</time>
      </trkpt>
      <trkpt lat="43.20562" lon="5.4968">
        <ele>60.7</ele>
        <time>2016-11-13T12:10:29Z</time>
      </trkpt>
      <trkpt lat="43.20579" lon="5.49705">
        <ele>53.97</ele>
        <time>2016-11-13T12:10:50Z</time>
      </trkpt>
      <trkpt lat="43.20601" lon="5.49733">
        <ele>54.45</ele>
        <time>2016-11-13T12:11:16Z</time>
      </trkpt>
      <trkpt lat="43.20632" lon="5.4972">
        <ele>53.97</ele>
        <time>2016-11-13T12:11:44Z</time>
      </trkpt>
      <trkpt lat="43.20642" lon="5.49749">
        <ele>54.45</ele>
        <time>2016-11-13T12:12:10Z</time>
      </trkpt>
      <trkpt lat="43.20641" lon="5.49782">
        <ele>50.13</ele>
        <time>2016-11-13T12:12:32Z</time>
      </trkpt>
      <trkpt lat="43.20632" lon="5.49814">
        <ele>46.28</ele>
        <time>2016-11-13T12:12:53Z</time>
      </trkpt>
      <trkpt lat="43.20612" lon="5.49852">
        <ele>44.36</ele>
        <time>2016-11-13T12:13:22Z</time>
      </trkpt>
      <trkpt lat="43.2061" lon="5.4989">
        <ele>32.82</ele>
        <time>2016-11-13T12:13:43Z</time>
      </trkpt>
      <trkpt lat="43.20616" lon="5.49921">
        <ele>38.11</ele>
        <time>2016-11-13T12:14:13Z</time>
      </trkpt>
      <trkpt lat="43.20625" lon="5.49953">
        <ele>45.8</ele>
        <time>2016-11-13T12:14:52Z</time>
      </trkpt>
      <trkpt lat="43.20631" lon="5.49986">
        <ele>54.45</ele>
        <time>2016-11-13T12:15:36Z</time>
      </trkpt>
      <trkpt lat="43.20645" lon="5.50013">
        <ele>65.03</ele>
        <time>2016-11-13T12:16:29Z</time>
      </trkpt>
      <trkpt lat="43.20662" lon="5.5004">
        <ele>79.45</ele>
        <time>2016-11-13T12:17:13Z</time>
      </trkpt>
      <trkpt lat="43.2068" lon="5.50063">
        <ele>87.14</ele>
        <time>2016-11-13T12:17:56Z</time>
      </trkpt>
      <trkpt lat="43.20687" lon="5.50078">
        <ele>99.15</ele>
        <time>2016-11-13T12:19:10Z</time>
      </trkpt>
      <trkpt lat="43.20675" lon="5.50099">
        <ele>107.32</ele>
        <time>2016-11-13T12:20:05Z</time>
      </trkpt>
      <trkpt lat="43.20666" lon="5.5012">
        <ele>115.98</ele>
        <time>2016-11-13T12:20:52Z</time>
      </trkpt>
      <trkpt lat="43.20664" lon="5.50141">
        <ele>129.92</ele>
        <time>2016-11-13T12:21:55Z</time>
      </trkpt>
      <trkpt lat="43.20635" lon="5.50157">
        <ele>139.53</ele>
        <time>2016-11-13T12:22:42Z</time>
      </trkpt>
      <trkpt lat="43.20624" lon="5.50187">
        <ele>138.57</ele>
        <time>2016-11-13T12:23:10Z</time>
      </trkpt>
      <trkpt lat="43.20625" lon="5.50198">
        <ele>137.61</ele>
        <time>2016-11-13T12:26:07Z</time>
      </trkpt>
      <trkpt lat="43.20629" lon="5.50212">
        <ele>140.49</ele>
        <time>2016-11-13T12:29:53Z</time>
      </trkpt>
      <trkpt lat="43.20621" lon="5.50243">
        <ele>134.72</ele>
        <time>2016-11-13T12:30:30Z</time>
      </trkpt>
      <trkpt lat="43.20608" lon="5.50271">
        <ele>134.72</ele>
        <time>2016-11-13T12:31:03Z</time>
      </trkpt>
      <trkpt lat="43.20594" lon="5.503">
        <ele>126.55</ele>
        <time>2016-11-13T12:31:42Z</time>
      </trkpt>
      <trkpt lat="43.20588" lon="5.50339">
        <ele>115.98</ele>
        <time>2016-11-13T12:32:29Z</time>
      </trkpt>
      <trkpt lat="43.20585" lon="5.50378">
        <ele>109.73</ele>
        <time>2016-11-13T12:33:15Z</time>
      </trkpt>
      <trkpt lat="43.20573" lon="5.50418">
        <ele>101.56</ele>
        <time>2016-11-13T12:33:59Z</time>
      </trkpt>
      <trkpt lat="43.20558" lon="5.50453">
        <ele>98.19</ele>
        <time>2016-11-13T12:34:42Z</time>
      </trkpt>
      <trkpt lat="43.20546" lon="5.50482">
        <ele>98.19</ele>
        <time>2016-11-13T12:35:11Z</time>
      </trkpt>
      <trkpt lat="43.20525" lon="5.50512">
        <ele>92.42</ele>
        <time>2016-11-13T12:36:09Z</time>
      </trkpt>
      <trkpt lat="43.20513" lon="5.50541">
        <ele>87.14</ele>
        <time>2016-11-13T12:36:47Z</time>
      </trkpt>
      <trkpt lat="43.20501" lon="5.50575">
        <ele>86.66</ele>
        <time>2016-11-13T12:37:26Z</time>
      </trkpt>
      <trkpt lat="43.20483" lon="5.50606">
        <ele>98.19</ele>
        <time>2016-11-13T12:38:17Z</time>
      </trkpt>
      <trkpt lat="43.20472" lon="5.50634">
        <ele>111.17</ele>
        <time>2016-11-13T12:38:54Z</time>
      </trkpt>
      <trkpt lat="43.20463" lon="5.50668">
        <ele>116.94</ele>
        <time>2016-11-13T12:39:32Z</time>
      </trkpt>
      <trkpt lat="43.20455" lon="5.5071">
        <ele>110.21</ele>
        <time>2016-11-13T12:40:21Z</time>
      </trkpt>
      <trkpt lat="43.20452" lon="5.50743">
        <ele>117.42</ele>
        <time>2016-11-13T12:41:00Z</time>
      </trkpt>
      <trkpt lat="43.2045" lon="5.50782">
        <ele>115.01</ele>
        <time>2016-11-13T12:41:25Z</time>
      </trkpt>
      <trkpt lat="43.20442" lon="5.5082">
        <ele>100.11</ele>
        <time>2016-11-13T12:41:57Z</time>
      </trkpt>
      <trkpt lat="43.20428" lon="5.50856">
        <ele>84.73</ele>
        <time>2016-11-13T12:42:24Z</time>
      </trkpt>
      <trkpt lat="43.20422" lon="5.50895">
        <ele>75.6</ele>
        <time>2016-11-13T12:43:02Z</time>
      </trkpt>
      <trkpt lat="43.20424" lon="5.50934">
        <ele>77.52</ele>
        <time>2016-11-13T12:43:29Z</time>
      </trkpt>
      <trkpt lat="43.20426" lon="5.50976">
        <ele>63.1</ele>
        <time>2016-11-13T12:43:56Z</time>
      </trkpt>
      <trkpt lat="43.20424" lon="5.51009">
        <ele>50.13</ele>
        <time>2016-11-13T12:44:13Z</time>
      </trkpt>
      <trkpt lat="43.20409" lon="5.51049">
        <ele>22.73</ele>
        <time>2016-11-13T12:44:37Z</time>
      </trkpt>
      <trkpt lat="43.2041" lon="5.51081">
        <ele>16</ele>
        <time>2016-11-13T12:45:02Z</time>
      </trkpt>
      <trkpt lat="43.20425" lon="5.51109">
        <ele>17.92</ele>
        <time>2016-11-13T12:45:33Z</time>
      </trkpt>
      <trkpt lat="43.2044" lon="5.51142">
        <ele>25.13</ele>
        <time>2016-11-13T12:46:13Z</time>
      </trkpt>
      <trkpt lat="43.2045" lon="5.51161">
        <ele>32.82</ele>
        <time>2016-11-13T12:47:14Z</time>
      </trkpt>
      <trkpt lat="43.2048" lon="5.51156">
        <ele>35.71</ele>
        <time>2016-11-13T12:47:51Z</time>
      </trkpt>
      <trkpt lat="43.20514" lon="5.51158">
        <ele>42.44</ele>
        <time>2016-11-13T12:48:31Z</time>
      </trkpt>
      <trkpt lat="43.20537" lon="5.51174">
        <ele>46.76</ele>
        <time>2016-11-13T12:49:03Z</time>
      </trkpt>
      <trkpt lat="43.20555" lon="5.51188">
        <ele>51.57</ele>
        <time>2016-11-13T12:50:28Z</time>
      </trkpt>
      <trkpt lat="43.20578" lon="5.51214">
        <ele>50.13</ele>
        <time>2016-11-13T12:50:57Z</time>
      </trkpt>
      <trkpt lat="43.20593" lon="5.51255">
        <ele>45.32</ele>
        <time>2016-11-13T12:51:33Z</time>
      </trkpt>
      <trkpt lat="43.206" lon="5.51284">
        <ele>41.47</ele>
        <time>2016-11-13T12:52:00Z</time>
      </trkpt>
      <trkpt lat="43.20591" lon="5.5132">
        <ele>40.99</ele>
        <time>2016-11-13T12:52:25Z</time>
      </trkpt>
      <trkpt lat="43.20581" lon="5.51353">
        <ele>44.36</ele>
        <time>2016-11-13T12:52:50Z</time>
      </trkpt>
      <trkpt lat="43.20589" lon="5.51384">
        <ele>40.03</ele>
        <time>2016-11-13T12:53:14Z</time>
      </trkpt>
      <trkpt lat="43.20605" lon="5.5141">
        <ele>39.07</ele>
        <time>2016-11-13T12:53:36Z</time>
      </trkpt>
      <trkpt lat="43.20625" lon="5.5143">
        <ele>38.59</ele>
        <time>2016-11-13T12:54:03Z</time>
      </trkpt>
      <trkpt lat="43.20647" lon="5.51454">
        <ele>32.34</ele>
        <time>2016-11-13T12:55:02Z</time>
      </trkpt>
      <trkpt lat="43.20677" lon="5.51466">
        <ele>27.05</ele>
        <time>2016-11-13T12:55:38Z</time>
      </trkpt>
      <trkpt lat="43.20709" lon="5.51477">
        <ele>23.21</ele>
        <time>2016-11-13T12:56:10Z</time>
      </trkpt>
      <trkpt lat="43.20735" lon="5.51495">
        <ele>22.73</ele>
        <time>2016-11-13T12:56:38Z</time>
      </trkpt>
      <trkpt lat="43.20758" lon="5.51521">
        <ele>27.53</ele>
        <time>2016-11-13T12:57:03Z</time>
      </trkpt>
      <trkpt lat="43.20781" lon="5.51552">
        <ele>25.13</ele>
        <time>2016-11-13T12:57:31Z</time>
      </trkpt>
      <trkpt lat="43.20797" lon="5.51574">
        <ele>21.29</ele>
        <time>2016-11-13T12:58:53Z</time>
      </trkpt>
      <trkpt lat="43.20822" lon="5.51603">
        <ele>15.04</ele>
        <time>2016-11-13T12:59:25Z</time>
      </trkpt>
      <trkpt lat="43.20843" lon="5.51629">
        <ele>15.04</ele>
        <time>2016-11-13T12:59:53Z</time>
      </trkpt>
      <trkpt lat="43.20863" lon="5.51657">
        <ele>17.44</ele>
        <time>2016-11-13T13:00:19Z</time>
      </trkpt>
      <trkpt lat="43.2089" lon="5.51687">
        <ele>17.44</ele>
        <time>2016-11-13T13:00:49Z</time>
      </trkpt>
      <trkpt lat="43.20904" lon="5.51727">
        <ele>16.48</ele>
        <time>2016-11-13T13:01:17Z</time>
      </trkpt>
      <trkpt lat="43.20937" lon="5.51766">
        <ele>10.71</ele>
        <time>2016-11-13T13:01:52Z</time>
      </trkpt>
      <trkpt lat="43.20969" lon="5.51805">
        <ele>9.75</ele>
        <time>2016-11-13T13:02:29Z</time>
      </trkpt>
      <trkpt lat="43.2098" lon="5.51838">
        <ele>8.79</ele>
        <time>2016-11-13T13:02:52Z</time>
      </trkpt>
      <trkpt lat="43.20993" lon="5.51891">
        <ele>5.42</ele>
        <time>2016-11-13T13:03:27Z</time>
      </trkpt>
      <trkpt lat="43.21017" lon="5.5194">
        <ele>4.46</ele>
        <time>2016-11-13T13:04:03Z</time>
      </trkpt>
      <trkpt lat="43.21041" lon="5.51977">
        <ele>9.27</ele>
        <time>2016-11-13T13:04:36Z</time>
      </trkpt>
      <trkpt lat="43.21069" lon="5.52006">
        <ele>15.04</ele>
        <time>2016-11-13T13:05:07Z</time>
      </trkpt>
      <trkpt lat="43.21098" lon="5.52034">
        <ele>16.96</ele>
        <time>2016-11-13T13:05:38Z</time>
      </trkpt>
      <trkpt lat="43.21117" lon="5.52055">
        <ele>15.04</ele>
        <time>2016-11-13T13:05:56Z</time>
      </trkpt>
      <trkpt lat="43.21134" lon="5.52079">
        <ele>15.04</ele>
        <time>2016-11-13T13:06:15Z</time>
      </trkpt>
      <trkpt lat="43.21166" lon="5.52119">
        <ele>16</ele>
        <time>2016-11-13T13:06:51Z</time>
      </trkpt>
      <trkpt lat="43.21188" lon="5.52166">
        <ele>17.92</ele>
        <time>2016-11-13T13:07:25Z</time>
      </trkpt>
      <trkpt lat="43.21202" lon="5.52203">
        <ele>28.98</ele>
        <time>2016-11-13T13:08:04Z</time>
      </trkpt>
      <trkpt lat="43.2117" lon="5.52208">
        <ele>30.42</ele>
        <time>2016-11-13T13:08:42Z</time>
      </trkpt>
      <trkpt lat="43.21146" lon="5.5223">
        <ele>37.15</ele>
        <time>2016-11-13T13:09:19Z</time>
      </trkpt>
      <trkpt lat="43.21136" lon="5.52257">
        <ele>38.11</ele>
        <time>2016-11-13T13:09:52Z</time>
      </trkpt>
      <trkpt lat="43.21121" lon="5.52275">
        <ele>44.84</ele>
        <time>2016-11-13T13:10:45Z</time>
      </trkpt>
      <trkpt lat="43.21104" lon="5.52297">
        <ele>53.01</ele>
        <time>2016-11-13T13:11:29Z</time>
      </trkpt>
      <trkpt lat="43.21084" lon="5.52304">
        <ele>55.89</ele>
        <time>2016-11-13T13:12:04Z</time>
      </trkpt>
      <trkpt lat="43.21061" lon="5.523">
        <ele>58.78</ele>
        <time>2016-11-13T13:12:39Z</time>
      </trkpt>
      <trkpt lat="43.21047" lon="5.52329">
        <ele>52.05</ele>
        <time>2016-11-13T13:13:13Z</time>
      </trkpt>
      <trkpt lat="43.21047" lon="5.52349">
        <ele>53.49</ele>
        <time>2016-11-13T13:16:04Z</time>
      </trkpt>
      <trkpt lat="43.21047" lon="5.5234">
        <ele>50.13</ele>
        <time>2016-11-13T13:20:52Z</time>
      </trkpt>
      <trkpt lat="43.21051" lon="5.52344">
        <ele>56.37</ele>
        <time>2016-11-13T13:21:28Z</time>
      </trkpt>
    </trkseg>
  </trk>
</gpx>